Terminal Aerodrome Forecast
Issued by NWS El Paso, TX

Home | Current Version | Previous Version | Text Only | Print | Product List | Glossary On
Versions: 1 2 3 4 5 6 7 8 9 10 11 12 13
000
FTUS44 KEPZ 041156
TAFELP
TAF
KELP 041156Z 0412/0512 11007KT P6SM FEW080 SCT120 BKN200
     FM041800 33010KT P6SM SCT070 SCT120 BKN200
     FM050400 32006KT P6SM VCTS FEW080CB BKN200
     FM050800 35008KT P6SM FEW080 BKN120=

USA.gov is the U.S. government's official web portal to all federal, state and local government web resources and services.